createdAt,value
2018-08-25T00:01:45.181Z,12.95
2018-08-25T00:04:19.199Z,12.96
2018-08-25T00:06:48.776Z,12.98
2018-08-25T00:09:18.514Z,12.94
2018-08-25T00:11:48.459Z,12.88
2018-08-25T00:14:18.675Z,12.87
2018-08-25T00:16:48.430Z,12.82
2018-08-25T00:19:18.481Z,12.83
2018-08-25T00:21:58.517Z,12.81
2018-08-25T00:24:31.522Z,12.85
2018-08-25T00:27:07.640Z,12.83
2018-08-25T00:29:38.466Z,12.86
2018-08-25T00:32:08.394Z,12.84
2018-08-25T00:34:39.279Z,12.85
2018-08-25T00:37:09.509Z,12.89
2018-08-25T00:39:39.910Z,12.92
2018-08-25T00:42:09.904Z,12.95
2018-08-25T00:44:39.421Z,12.94
2018-08-25T00:47:09.131Z,12.94
2018-08-25T00:49:39.199Z,12.85
2018-08-25T00:52:09.449Z,12.94
2018-08-25T00:54:39.529Z,12.86
2018-08-25T00:57:10.230Z,12.86
2018-08-25T00:59:40.132Z,12.80
2018-08-25T01:02:10.695Z,12.78
2018-08-25T01:04:40.341Z,12.81
2018-08-25T01:07:09.911Z,12.75
2018-08-25T01:09:56.413Z,12.68
2018-08-25T01:12:26.885Z,12.67
2018-08-25T01:14:56.436Z,12.66
2018-08-25T01:17:26.485Z,12.64
2018-08-25T01:19:56.650Z,12.61
2018-08-25T01:22:26.640Z,12.53
2018-08-25T01:24:56.202Z,12.50
2018-08-25T01:30:00.996Z,12.38
2018-08-25T01:32:31.241Z,12.38
2018-08-25T01:35:00.963Z,12.29
2018-08-25T01:37:30.486Z,12.26
2018-08-25T01:40:00.789Z,12.17
2018-08-25T01:42:30.294Z,12.14
2018-08-25T01:44:59.867Z,12.11
2018-08-25T01:47:33.480Z,12.05
2018-08-25T01:50:02.982Z,11.95
2018-08-25T01:52:33.113Z,11.81
2018-08-25T01:55:03.208Z,11.56
2018-08-25T01:57:33.089Z,11.21
2018-08-25T02:00:02.667Z,11.10
2018-08-25T02:02:32.574Z,11.01
2018-08-25T02:05:02.241Z,11.09
2018-08-25T02:07:33.227Z,11.25
2018-08-25T02:10:03.431Z,11.30
2018-08-25T02:12:33.127Z,11.33
2018-08-25T02:15:03.250Z,11.37
2018-08-25T02:17:32.777Z,11.46
2018-08-25T02:20:03.128Z,11.39
2018-08-25T02:22:42.906Z,11.22
2018-08-25T02:25:13.844Z,11.11
2018-08-25T02:27:45.644Z,11.09
2018-08-25T02:30:16.381Z,11.15
2018-08-25T02:32:48.779Z,10.98
2018-08-25T02:35:19.199Z,11.02
2018-08-25T02:37:50.875Z,10.97
2018-08-25T02:40:21.176Z,10.92
2018-08-25T02:42:50.665Z,10.95
2018-08-25T02:45:23.256Z,11.00
2018-08-25T02:47:54.409Z,10.96
2018-08-25T02:50:24.588Z,10.99
2018-08-25T02:52:55.488Z,11.02
2018-08-25T02:55:25.290Z,11.10
2018-08-25T02:57:54.821Z,11.13
2018-08-25T03:00:25.447Z,11.12
2018-08-25T03:02:56.360Z,11.14
2018-08-25T03:05:27.043Z,11.11
2018-08-25T03:07:57.265Z,10.93
2018-08-25T03:10:27.350Z,10.93
2018-08-25T03:12:58.004Z,10.83
2018-08-25T03:15:27.850Z,10.86
2018-08-25T03:17:57.474Z,10.86
2018-08-25T03:20:27.030Z,10.93
2018-08-25T03:22:56.660Z,11.00
2018-08-25T03:25:27.294Z,11.03
2018-08-25T03:27:57.941Z,11.06
2018-08-25T03:30:29.017Z,11.09
2018-08-25T03:33:08.890Z,11.14
2018-08-25T03:35:41.984Z,11.11
2018-08-25T03:38:13.115Z,11.21
2018-08-25T03:40:42.628Z,11.11
2018-08-25T03:43:12.074Z,11.15
2018-08-25T03:45:42.247Z,11.03
2018-08-25T03:48:12.358Z,11.00
2018-08-25T03:50:42.769Z,10.99
2018-08-25T03:53:13.219Z,10.93
2018-08-25T03:55:43.315Z,11.01
2018-08-25T03:58:13.634Z,10.93
2018-08-25T04:00:44.291Z,10.90
2018-08-25T04:03:16.244Z,10.93
2018-08-25T04:05:45.847Z,10.95
2018-08-25T04:08:15.511Z,11.04
2018-08-25T04:10:45.368Z,11.05
2018-08-25T04:13:14.969Z,11.11
2018-08-25T04:15:44.564Z,11.13
2018-08-25T04:18:14.209Z,11.13
2018-08-25T04:20:43.824Z,11.20
2018-08-25T04:23:13.389Z,11.21
2018-08-25T04:25:43.900Z,11.18
2018-08-25T04:28:14.232Z,11.15
2018-08-25T04:30:45.198Z,11.05
2018-08-25T04:33:14.763Z,11.03
2018-08-25T04:35:44.260Z,11.06
2018-08-25T04:38:14.011Z,11.13
2018-08-25T04:40:43.512Z,11.04
2018-08-25T04:43:14.741Z,11.05
2018-08-25T04:45:51.408Z,11.05
2018-08-25T04:48:21.209Z,11.19
2018-08-25T04:50:50.773Z,11.22
2018-08-25T04:53:20.333Z,11.30
2018-08-25T04:55:51.116Z,11.37
2018-08-25T04:58:20.669Z,11.33
2018-08-25T05:00:50.812Z,11.30
2018-08-25T05:03:21.690Z,11.35
2018-08-25T05:05:52.557Z,11.22
2018-08-25T05:08:23.123Z,11.27
2018-08-25T05:10:52.941Z,11.40
2018-08-25T05:13:22.485Z,11.47
2018-08-25T05:15:58.141Z,11.58
2018-08-25T05:18:29.654Z,11.80
2018-08-25T05:20:59.941Z,11.80
2018-08-25T05:23:29.481Z,11.69
2018-08-25T05:25:59.209Z,11.75
2018-08-25T05:28:28.866Z,11.81
2018-08-25T05:30:58.817Z,11.86
2018-08-25T05:36:25.889Z,11.90
2018-08-25T05:38:56.413Z,11.91
2018-08-25T05:41:26.586Z,11.90
2018-08-25T05:43:56.381Z,11.85
2018-08-25T05:46:26.757Z,11.87
2018-08-25T05:48:56.793Z,11.84
2018-08-25T05:51:26.330Z,11.98
2018-08-25T05:53:57.109Z,12.04
2018-08-25T05:56:27.202Z,12.12
2018-08-25T05:58:56.781Z,12.15
2018-08-25T06:01:26.720Z,12.25
2018-08-25T06:03:56.468Z,12.46
2018-08-25T06:06:26.074Z,12.62
2018-08-25T06:08:55.869Z,12.70
2018-08-25T06:11:27.251Z,12.69
2018-08-25T06:13:56.875Z,12.68
2018-08-25T06:16:26.602Z,13.07
2018-08-25T06:18:56.949Z,13.10
2018-08-25T06:21:26.789Z,13.26
2018-08-25T06:23:56.529Z,13.29
2018-08-25T06:26:26.358Z,13.42
2018-08-25T06:28:56.731Z,13.62
2018-08-25T06:31:27.212Z,13.56
2018-08-25T06:33:56.832Z,13.67
2018-08-25T06:36:26.434Z,13.66
2018-08-25T06:39:01.479Z,13.71
2018-08-25T06:41:34.820Z,13.66
2018-08-25T06:44:04.357Z,13.73
2018-08-25T06:46:56.446Z,13.77
2018-08-25T06:49:26.368Z,13.96
2018-08-25T06:51:55.882Z,14.08
2018-08-25T06:54:25.479Z,14.24
2018-08-25T06:57:05.767Z,14.19
2018-08-25T06:59:36.016Z,14.21
2018-08-25T07:02:06.533Z,14.13
2018-08-25T07:04:36.805Z,14.11
2018-08-25T07:07:07.318Z,14.14
2018-08-25T07:09:38.447Z,14.21
2018-08-25T07:12:10.486Z,14.25
2018-08-25T07:14:40.610Z,14.48
2018-08-25T07:17:10.117Z,14.49
2018-08-25T07:19:39.665Z,14.48
2018-08-25T07:22:10.145Z,14.66
2018-08-25T07:24:40.193Z,14.57
2018-08-25T07:27:10.394Z,14.67
2018-08-25T07:29:40.530Z,14.88
2018-08-25T07:32:10.527Z,14.84
2018-08-25T07:34:40.093Z,14.89
2018-08-25T07:37:09.997Z,15.14
2018-08-25T07:39:40.797Z,15.37
2018-08-25T07:42:11.614Z,15.58
2018-08-25T07:44:41.952Z,15.72
2018-08-25T07:47:11.910Z,15.58
2018-08-25T07:49:43.800Z,16.01
2018-08-25T07:52:14.796Z,16.32
2018-08-25T07:54:44.302Z,16.31
2018-08-25T07:57:13.808Z,16.16
2018-08-25T08:00:07.712Z,15.84
2018-08-25T08:02:37.719Z,15.65
2018-08-25T08:05:07.326Z,14.95
2018-08-25T08:07:38.281Z,14.03
2018-08-25T08:10:08.342Z,13.73
2018-08-25T08:12:41.543Z,13.47
2018-08-25T08:15:12.089Z,13.27
2018-08-25T08:17:42.409Z,12.98
2018-08-25T08:20:12.482Z,12.97
2018-08-25T08:22:45.313Z,12.91
2018-08-25T08:25:15.011Z,12.70
2018-08-25T08:27:45.243Z,12.64
2018-08-25T08:30:15.392Z,12.64
2018-08-25T08:32:45.377Z,12.67
2018-08-25T08:35:25.067Z,12.77
2018-08-25T08:37:54.776Z,12.70
2018-08-25T08:40:24.473Z,12.94
2018-08-25T08:42:57.073Z,12.95
2018-08-25T08:45:26.809Z,13.17
2018-08-25T08:47:57.509Z,13.32
2018-08-25T08:50:27.049Z,13.37
2018-08-25T08:52:57.036Z,13.41
2018-08-25T08:55:26.586Z,13.27
2018-08-25T08:57:56.206Z,13.26
2018-08-25T09:00:25.796Z,13.34
2018-08-25T09:02:55.717Z,13.26
2018-08-25T09:05:27.017Z,13.47
2018-08-25T09:07:57.205Z,13.54
2018-08-25T09:10:28.999Z,13.65
2018-08-25T09:13:00.244Z,13.71
2018-08-25T09:15:30.987Z,13.56
2018-08-25T09:18:00.815Z,13.45
2018-08-25T09:20:33.474Z,13.32
2018-08-25T09:23:02.965Z,13.22
2018-08-25T09:25:32.642Z,13.25
2018-08-25T09:28:03.254Z,13.29
2018-08-25T09:30:33.818Z,13.19
2018-08-25T09:33:03.977Z,13.18
2018-08-25T09:35:34.775Z,13.14
2018-08-25T09:40:52.290Z,13.08
2018-08-25T09:43:21.988Z,13.05
2018-08-25T09:45:52.928Z,13.01
2018-08-25T09:48:22.546Z,13.03
2018-08-25T09:50:53.433Z,12.97
2018-08-25T09:53:23.480Z,13.07
2018-08-25T09:55:54.103Z,13.29
2018-08-25T09:58:23.749Z,13.49
2018-08-25T10:00:59.060Z,13.62
2018-08-25T10:03:50.677Z,13.93
2018-08-25T10:06:21.739Z,14.21
2018-08-25T10:08:51.387Z,14.42
2018-08-25T10:11:21.291Z,14.55
2018-08-25T10:13:50.971Z,14.77
2018-08-25T10:16:20.650Z,14.91
2018-08-25T10:18:50.320Z,15.01
2018-08-25T10:21:19.857Z,14.81
2018-08-25T10:23:49.489Z,14.73
2018-08-25T10:26:19.977Z,14.69
2018-08-25T10:28:49.588Z,14.64
2018-08-25T10:31:19.114Z,14.78
2018-08-25T10:33:50.156Z,14.74
2018-08-25T10:36:20.693Z,14.78
2018-08-25T10:38:50.723Z,14.80
2018-08-25T10:41:20.638Z,14.73
2018-08-25T10:43:52.774Z,14.63
2018-08-25T10:46:22.253Z,14.49
2018-08-25T10:48:51.932Z,14.52
2018-08-25T10:51:22.196Z,14.39
2018-08-25T10:53:53.150Z,14.36
2018-08-25T10:56:22.692Z,14.27
2018-08-25T10:58:52.623Z,14.34
2018-08-25T11:01:22.919Z,14.27
2018-08-25T11:03:52.674Z,14.64
2018-08-25T11:06:22.192Z,14.77
2018-08-25T11:08:52.369Z,14.85
2018-08-25T11:11:21.809Z,14.55
2018-08-25T11:13:51.381Z,14.39
2018-08-25T11:16:45.090Z,14.35
2018-08-25T11:19:14.976Z,14.31
2018-08-25T11:21:44.656Z,14.15
2018-08-25T11:24:14.841Z,13.58
2018-08-25T11:26:45.170Z,13.26
2018-08-25T11:29:16.336Z,13.02
2018-08-25T11:31:46.053Z,12.84
2018-08-25T11:34:15.639Z,12.87
2018-08-25T11:36:47.802Z,12.83
2018-08-25T11:39:17.276Z,12.86
2018-08-25T11:41:47.335Z,13.13
2018-08-25T11:44:17.263Z,13.19
2018-08-25T11:46:47.342Z,13.12
2018-08-25T11:49:16.925Z,13.12
2018-08-25T11:51:46.542Z,13.17
2018-08-25T11:54:16.793Z,13.28
2018-08-25T11:56:47.079Z,13.29
2018-08-25T11:59:17.915Z,13.48
2018-08-25T12:01:48.244Z,13.50
2018-08-25T12:04:18.413Z,13.42
2018-08-25T12:06:48.260Z,13.58
2018-08-25T12:09:17.850Z,13.65
2018-08-25T12:11:48.093Z,13.20
2018-08-25T12:14:17.826Z,12.81
2018-08-25T12:16:49.479Z,12.55
2018-08-25T12:19:22.095Z,12.17
2018-08-25T12:21:52.219Z,12.04
2018-08-25T12:24:22.215Z,11.80
2018-08-25T12:26:54.457Z,12.05
2018-08-25T12:32:21.763Z,12.35
2018-08-25T12:34:51.371Z,12.71
2018-08-25T12:37:21.122Z,13.37
2018-08-25T12:39:50.964Z,14.11
2018-08-25T12:42:21.211Z,14.46
2018-08-25T12:44:52.463Z,13.84
2018-08-25T12:47:28.145Z,13.81
2018-08-25T12:49:58.855Z,14.07
2018-08-25T12:52:28.501Z,13.90
2018-08-25T12:54:59.567Z,14.14
2018-08-25T12:57:29.221Z,13.87
2018-08-25T13:00:00.173Z,13.51
2018-08-25T13:02:29.813Z,13.49
2018-08-25T13:04:59.746Z,13.19
2018-08-25T13:07:30.231Z,12.99
2018-08-25T13:10:00.084Z,12.94
2018-08-25T13:12:29.771Z,12.86
2018-08-25T13:15:00.332Z,12.83
2018-08-25T13:17:29.889Z,12.80
2018-08-25T13:19:59.878Z,12.87
2018-08-25T13:22:29.615Z,12.90
2018-08-25T13:25:00.657Z,12.96
2018-08-25T13:27:31.226Z,13.03
2018-08-25T13:30:01.964Z,13.02
2018-08-25T13:32:31.722Z,13.17
2018-08-25T13:35:01.269Z,13.43
2018-08-25T13:37:31.037Z,13.25
2018-08-25T13:40:00.857Z,13.27
2018-08-25T13:42:30.410Z,13.22
2018-08-25T13:45:01.093Z,13.21
2018-08-25T13:47:31.641Z,13.26
2018-08-25T13:50:01.262Z,13.26
2018-08-25T13:52:31.090Z,13.17
2018-08-25T13:55:00.752Z,13.16
2018-08-25T13:57:30.336Z,13.36
2018-08-25T13:59:59.936Z,13.56
2018-08-25T14:02:29.380Z,13.44
2018-08-25T14:05:00.984Z,13.40
2018-08-25T14:07:30.477Z,13.19
2018-08-25T14:10:00.818Z,13.21
2018-08-25T14:12:30.324Z,13.13
2018-08-25T14:14:59.925Z,13.14
2018-08-25T14:17:29.443Z,13.22
2018-08-25T14:20:00.061Z,13.34
2018-08-25T14:22:29.555Z,13.22
2018-08-25T14:24:59.753Z,13.31
2018-08-25T14:27:29.302Z,13.25
2018-08-25T14:29:58.786Z,13.37
2018-08-25T14:32:28.672Z,13.44
2018-08-25T14:34:59.972Z,13.62
2018-08-25T14:37:30.245Z,13.80
2018-08-25T14:40:00.267Z,13.73
2018-08-25T14:42:32.248Z,13.66
2018-08-25T14:45:01.977Z,13.70
2018-08-25T14:47:31.674Z,13.62
2018-08-25T14:50:02.391Z,13.65
2018-08-25T14:52:32.026Z,13.72
2018-08-25T14:55:01.601Z,13.67
2018-08-25T14:57:31.200Z,13.71
2018-08-25T15:00:00.726Z,13.78
2018-08-25T15:02:31.112Z,13.91
2018-08-25T15:05:03.109Z,14.04
2018-08-25T15:07:33.061Z,14.19
2018-08-25T15:10:02.700Z,14.28
2018-08-25T15:12:32.309Z,14.38
2018-08-25T15:15:01.900Z,14.38
2018-08-25T15:17:31.625Z,15.20
2018-08-25T15:20:01.320Z,17.20
2018-08-25T15:22:31.267Z,18.61
2018-08-25T15:25:00.793Z,18.50
2018-08-25T15:27:30.356Z,18.32
2018-08-25T15:29:59.793Z,18.20
2018-08-25T15:32:29.258Z,19.16
2018-08-25T15:34:59.637Z,20.15
2018-08-25T15:37:29.596Z,21.00
2018-08-25T15:39:59.529Z,20.78
2018-08-25T15:42:32.185Z,19.74
2018-08-25T15:45:02.256Z,19.63
2018-08-25T15:47:31.959Z,19.00
2018-08-25T15:50:02.474Z,19.06
2018-08-25T15:52:32.540Z,19.30
2018-08-25T15:55:02.261Z,18.94
2018-08-25T15:57:31.845Z,17.48
2018-08-25T16:00:03.623Z,16.85
2018-08-25T16:02:34.192Z,16.66
2018-08-25T16:05:03.933Z,15.92
2018-08-25T16:07:34.041Z,15.80
2018-08-25T16:10:07.067Z,16.61
2018-08-25T16:12:37.048Z,18.12
2018-08-25T16:15:06.944Z,20.15
2018-08-25T16:17:37.371Z,21.43
2018-08-25T16:20:06.995Z,22.19
2018-08-25T16:22:36.387Z,22.88
2018-08-25T16:25:06.125Z,23.10
2018-08-25T16:27:35.628Z,20.54
2018-08-25T16:30:05.953Z,21.29
2018-08-25T16:32:35.631Z,21.94
2018-08-25T16:35:05.132Z,23.00
2018-08-25T16:37:34.658Z,22.95
2018-08-25T16:40:04.280Z,23.88
2018-08-25T16:42:33.786Z,23.46
2018-08-25T16:45:03.378Z,21.28
2018-08-25T16:47:32.852Z,20.23
2018-08-25T16:50:02.405Z,20.05
2018-08-25T16:52:31.893Z,21.09
2018-08-25T16:55:01.556Z,21.23
2018-08-25T16:57:31.071Z,19.96
2018-08-25T17:00:00.660Z,19.22
2018-08-25T17:02:30.461Z,19.97
2018-08-25T17:05:00.026Z,20.06
2018-08-25T17:07:29.493Z,19.54
2018-08-25T17:09:59.397Z,18.56
2018-08-25T17:12:28.858Z,18.50
2018-08-25T17:14:58.744Z,18.56
2018-08-25T17:17:28.259Z,18.87
2018-08-25T17:19:57.808Z,18.59
2018-08-25T17:22:27.280Z,17.68
2018-08-25T17:24:56.826Z,16.90
2018-08-25T17:27:26.436Z,16.32
2018-08-25T17:29:55.986Z,15.94
2018-08-25T17:32:25.639Z,15.44
2018-08-25T17:34:55.262Z,15.31
2018-08-25T17:37:24.787Z,15.30
2018-08-25T17:39:54.320Z,15.11
2018-08-25T17:42:23.943Z,15.00
2018-08-25T17:44:54.410Z,14.88
2018-08-25T17:47:23.921Z,14.61
2018-08-25T17:49:53.594Z,14.54
2018-08-25T17:52:23.119Z,14.48
2018-08-25T17:54:52.674Z,14.39
2018-08-25T17:57:22.352Z,14.41
2018-08-25T17:59:51.749Z,14.38
2018-08-25T18:02:21.289Z,14.33
2018-08-25T18:04:51.330Z,14.27
2018-08-25T18:07:20.853Z,14.21
2018-08-25T18:09:50.527Z,14.12
2018-08-25T18:12:20.025Z,14.12
2018-08-25T18:14:49.667Z,13.92
2018-08-25T18:17:19.249Z,13.92
2018-08-25T18:19:48.762Z,13.80
2018-08-25T18:22:18.318Z,13.78
2018-08-25T18:24:47.881Z,13.79
2018-08-25T18:27:17.354Z,13.78
2018-08-25T18:29:46.868Z,13.76
2018-08-25T18:32:16.480Z,13.74
2018-08-25T18:34:45.984Z,13.63
2018-08-25T18:37:15.563Z,13.64
2018-08-25T18:39:45.860Z,13.45
2018-08-25T18:42:15.774Z,13.45
2018-08-25T18:44:45.379Z,13.37
2018-08-25T18:47:14.961Z,13.37
2018-08-25T18:49:44.436Z,13.42
2018-08-25T18:52:15.002Z,13.26
2018-08-25T18:54:44.600Z,13.27
2018-08-25T18:57:14.014Z,13.26
2018-08-25T18:59:43.511Z,13.16
2018-08-25T19:02:13.234Z,13.16
2018-08-25T19:04:42.790Z,13.15
2018-08-25T19:07:12.222Z,13.15
2018-08-25T19:09:41.712Z,13.10
2018-08-25T19:12:11.385Z,13.04
2018-08-25T19:14:40.997Z,13.02
2018-08-25T19:17:10.503Z,12.87
2018-08-25T19:19:40.165Z,12.90
2018-08-25T19:22:10.661Z,12.88
2018-08-25T19:24:40.118Z,12.92
2018-08-25T19:27:09.727Z,12.88
2018-08-25T19:29:39.338Z,12.76
2018-08-25T19:32:09.003Z,12.77
2018-08-25T19:34:38.458Z,12.81
2018-08-25T19:37:07.968Z,12.83
2018-08-25T19:39:37.598Z,12.65
2018-08-25T19:42:07.110Z,12.66
2018-08-25T19:44:36.622Z,12.70
2018-08-25T19:47:06.194Z,12.61
2018-08-25T19:49:35.867Z,12.57
2018-08-25T19:52:05.927Z,12.60
2018-08-25T19:54:35.592Z,12.58
2018-08-25T19:57:05.120Z,12.54
2018-08-25T19:59:34.603Z,12.54
2018-08-25T20:02:04.172Z,12.56
2018-08-25T20:04:33.902Z,12.55
2018-08-25T20:07:04.083Z,12.51
2018-08-25T20:09:33.917Z,12.45
2018-08-25T20:12:03.306Z,12.55
2018-08-25T20:14:32.937Z,12.49
2018-08-25T20:17:02.532Z,12.39
2018-08-25T20:19:32.094Z,12.39
2018-08-25T20:22:01.720Z,12.36
2018-08-25T20:24:31.413Z,12.36
2018-08-25T20:27:01.152Z,12.38
2018-08-25T20:29:30.691Z,12.26
2018-08-25T20:32:00.474Z,12.25
2018-08-25T20:34:30.101Z,12.17
2018-08-25T20:37:00.471Z,12.13
2018-08-25T20:39:29.967Z,12.07
2018-08-25T20:41:59.686Z,12.10
2018-08-25T20:44:29.251Z,12.09
2018-08-25T20:46:58.882Z,12.04
2018-08-25T20:49:28.414Z,12.02
2018-08-25T20:51:57.933Z,12.04
2018-08-25T20:54:27.491Z,11.97
2018-08-25T20:56:56.982Z,11.94
2018-08-25T20:59:26.382Z,11.94
2018-08-25T21:01:55.952Z,11.96
2018-08-25T21:04:25.512Z,11.90
2018-08-25T21:06:54.973Z,11.90
2018-08-25T21:09:24.493Z,11.89
2018-08-25T21:11:54.293Z,11.85
2018-08-25T21:14:23.806Z,11.90
2018-08-25T21:16:53.393Z,11.85
2018-08-25T21:19:22.867Z,11.83
2018-08-25T21:21:52.345Z,11.82
2018-08-25T21:24:21.963Z,11.79
2018-08-25T21:26:51.573Z,11.72
2018-08-25T21:29:21.040Z,11.75
2018-08-25T21:31:50.609Z,11.65
2018-08-25T21:34:20.242Z,11.63
2018-08-25T21:36:50.103Z,11.60
2018-08-25T21:39:20.300Z,11.57
2018-08-25T21:41:50.102Z,11.59
2018-08-25T21:44:19.584Z,11.57
2018-08-25T21:46:49.007Z,11.48
2018-08-25T21:49:18.635Z,11.54
2018-08-25T21:51:48.087Z,11.58
2018-08-25T21:54:17.641Z,11.52
2018-08-25T21:56:47.134Z,11.58
2018-08-25T21:59:16.640Z,11.49
2018-08-25T22:01:51.213Z,11.48
2018-08-25T22:04:21.166Z,11.44
2018-08-25T22:06:50.673Z,11.41
2018-08-25T22:09:20.221Z,11.41
2018-08-25T22:11:49.712Z,11.48
2018-08-25T22:14:19.226Z,11.40
2018-08-25T22:16:49.100Z,11.35
2018-08-25T22:19:18.755Z,11.32
2018-08-25T22:21:48.305Z,11.25
2018-08-25T22:24:18.216Z,11.20
2018-08-25T22:26:47.763Z,11.20
2018-08-25T22:29:17.226Z,11.20
2018-08-25T22:31:46.690Z,11.27
2018-08-25T22:34:16.157Z,11.17
2018-08-25T22:36:45.618Z,11.19
2018-08-25T22:39:15.105Z,11.16
2018-08-25T22:41:44.721Z,11.14
2018-08-25T22:44:14.250Z,11.16
2018-08-25T22:46:43.752Z,11.19
2018-08-25T22:49:13.375Z,11.20
2018-08-25T22:51:42.793Z,11.21
2018-08-25T22:54:13.055Z,11.13
2018-08-25T22:56:42.677Z,11.17
2018-08-25T22:59:12.313Z,11.18
2018-08-25T23:01:41.887Z,11.16
2018-08-25T23:04:11.455Z,11.06
2018-08-25T23:06:40.998Z,11.11
2018-08-25T23:09:11.017Z,11.07
2018-08-25T23:11:40.824Z,11.02
2018-08-25T23:14:10.436Z,11.02
2018-08-25T23:16:39.960Z,11.00
2018-08-25T23:19:09.472Z,10.95
2018-08-25T23:21:39.175Z,10.92
2018-08-25T23:24:08.683Z,10.90
2018-08-25T23:26:38.260Z,10.87
2018-08-25T23:29:07.812Z,10.89
2018-08-25T23:31:37.359Z,10.81
2018-08-25T23:34:06.966Z,10.81
2018-08-25T23:36:36.552Z,10.83
2018-08-25T23:39:08.743Z,10.82
2018-08-25T23:41:38.207Z,10.76
2018-08-25T23:44:07.654Z,10.73
2018-08-25T23:46:37.120Z,10.71
2018-08-25T23:49:06.822Z,10.76
2018-08-25T23:51:36.410Z,10.70
2018-08-25T23:54:06.021Z,10.69
2018-08-25T23:56:35.532Z,10.66
2018-08-25T23:59:05.124Z,10.70
